sensor_id;sensor_type;location;lat;lon;timestamp;P1;durP1;ratioP1;P2;durP2;ratioP2
5995;SDS011;3026;53.612;7.278;2022-08-19T00:02:10;3.10;;;2.80;;
5995;SDS011;3026;53.612;7.278;2022-08-19T00:04:38;2.83;;;2.63;;
5995;SDS011;3026;53.612;7.278;2022-08-19T00:07:06;4.90;;;2.47;;
5995;SDS011;3026;53.612;7.278;2022-08-19T00:09:33;3.13;;;2.50;;
5995;SDS011;3026;53.612;7.278;2022-08-19T00:12:00;4.40;;;2.70;;
5995;SDS011;3026;53.612;7.278;2022-08-19T00:14:27;3.23;;;2.77;;
5995;SDS011;3026;53.612;7.278;2022-08-19T00:16:56;2.50;;;2.30;;
5995;SDS011;3026;53.612;7.278;2022-08-19T00:19:23;3.10;;;2.57;;
5995;SDS011;3026;53.612;7.278;2022-08-19T00:21:52;3.47;;;2.57;;
5995;SDS011;3026;53.612;7.278;2022-08-19T00:24:20;3.37;;;2.90;;
5995;SDS011;3026;53.612;7.278;2022-08-19T00:26:47;2.37;;;2.27;;
5995;SDS011;3026;53.612;7.278;2022-08-19T00:29:16;3.13;;;2.60;;
5995;SDS011;3026;53.612;7.278;2022-08-19T00:31:44;4.60;;;3.10;;
5995;SDS011;3026;53.612;7.278;2022-08-19T00:34:11;2.80;;;2.60;;
5995;SDS011;3026;53.612;7.278;2022-08-19T00:36:39;2.70;;;2.50;;
5995;SDS011;3026;53.612;7.278;2022-08-19T00:39:08;3.17;;;2.87;;
5995;SDS011;3026;53.612;7.278;2022-08-19T00:41:36;3.60;;;2.60;;
5995;SDS011;3026;53.612;7.278;2022-08-19T00:44:05;3.80;;;2.80;;
5995;SDS011;3026;53.612;7.278;2022-08-19T00:46:36;3.13;;;2.43;;
5995;SDS011;3026;53.612;7.278;2022-08-19T00:49:06;2.90;;;2.70;;
5995;SDS011;3026;53.612;7.278;2022-08-19T00:51:39;3.00;;;2.73;;
5995;SDS011;3026;53.612;7.278;2022-08-19T00:54:10;3.27;;;2.97;;
5995;SDS011;3026;53.612;7.278;2022-08-19T00:56:37;5.50;;;3.03;;
5995;SDS011;3026;53.612;7.278;2022-08-19T00:59:05;4.83;;;2.87;;
5995;SDS011;3026;53.612;7.278;2022-08-19T01:01:34;3.67;;;3.37;;
5995;SDS011;3026;53.612;7.278;2022-08-19T01:04:01;2.80;;;2.60;;
5995;SDS011;3026;53.612;7.278;2022-08-19T01:06:29;4.67;;;2.47;;
5995;SDS011;3026;53.612;7.278;2022-08-19T01:08:58;3.10;;;2.83;;
5995;SDS011;3026;53.612;7.278;2022-08-19T01:11:27;3.33;;;2.93;;
5995;SDS011;3026;53.612;7.278;2022-08-19T01:13:54;2.63;;;2.43;;
5995;SDS011;3026;53.612;7.278;2022-08-19T01:16:22;2.90;;;2.70;;
5995;SDS011;3026;53.612;7.278;2022-08-19T01:18:53;3.47;;;2.47;;
5995;SDS011;3026;53.612;7.278;2022-08-19T01:21:22;4.70;;;2.80;;
5995;SDS011;3026;53.612;7.278;2022-08-19T01:23:56;3.77;;;3.00;;
5995;SDS011;3026;53.612;7.278;2022-08-19T01:26:24;4.43;;;2.80;;
5995;SDS011;3026;53.612;7.278;2022-08-19T01:28:53;3.20;;;2.90;;
5995;SDS011;3026;53.612;7.278;2022-08-19T01:31:22;4.07;;;2.97;;
5995;SDS011;3026;53.612;7.278;2022-08-19T01:33:52;2.90;;;2.60;;
5995;SDS011;3026;53.612;7.278;2022-08-19T01:36:22;4.97;;;2.97;;
5995;SDS011;3026;53.612;7.278;2022-08-19T01:38:51;3.37;;;3.03;;
5995;SDS011;3026;53.612;7.278;2022-08-19T01:41:20;4.37;;;3.23;;
5995;SDS011;3026;53.612;7.278;2022-08-19T01:43:48;3.30;;;3.00;;
5995;SDS011;3026;53.612;7.278;2022-08-19T01:46:16;2.87;;;2.33;;
5995;SDS011;3026;53.612;7.278;2022-08-19T01:48:44;3.90;;;2.70;;
5995;SDS011;3026;53.612;7.278;2022-08-19T01:51:12;2.97;;;2.77;;
5995;SDS011;3026;53.612;7.278;2022-08-19T01:53:39;3.30;;;2.80;;
5995;SDS011;3026;53.612;7.278;2022-08-19T01:56:07;3.13;;;2.83;;
5995;SDS011;3026;53.612;7.278;2022-08-19T01:58:36;3.33;;;2.73;;
5995;SDS011;3026;53.612;7.278;2022-08-19T02:01:08;4.90;;;2.47;;
5995;SDS011;3026;53.612;7.278;2022-08-19T02:03:35;2.60;;;2.40;;
5995;SDS011;3026;53.612;7.278;2022-08-19T02:06:02;4.53;;;3.00;;
5995;SDS011;3026;53.612;7.278;2022-08-19T02:08:31;2.87;;;2.47;;
5995;SDS011;3026;53.612;7.278;2022-08-19T02:11:01;4.93;;;2.47;;
5995;SDS011;3026;53.612;7.278;2022-08-19T02:13:28;3.07;;;2.87;;
5995;SDS011;3026;53.612;7.278;2022-08-19T02:15:57;2.80;;;2.60;;
5995;SDS011;3026;53.612;7.278;2022-08-19T02:18:23;2.70;;;2.50;;
5995;SDS011;3026;53.612;7.278;2022-08-19T02:20:51;3.97;;;2.77;;
5995;SDS011;3026;53.612;7.278;2022-08-19T02:23:18;3.93;;;2.70;;
5995;SDS011;3026;53.612;7.278;2022-08-19T02:25:46;2.77;;;2.47;;
5995;SDS011;3026;53.612;7.278;2022-08-19T02:28:14;5.60;;;2.60;;
5995;SDS011;3026;53.612;7.278;2022-08-19T02:30:42;2.77;;;2.57;;
5995;SDS011;3026;53.612;7.278;2022-08-19T02:33:10;4.07;;;2.37;;
5995;SDS011;3026;53.612;7.278;2022-08-19T02:35:40;2.70;;;2.30;;
5995;SDS011;3026;53.612;7.278;2022-08-19T02:38:08;2.50;;;2.30;;
5995;SDS011;3026;53.612;7.278;2022-08-19T02:40:54;2.50;;;2.30;;
5995;SDS011;3026;53.612;7.278;2022-08-19T02:43:23;3.03;;;2.40;;
5995;SDS011;3026;53.612;7.278;2022-08-19T02:45:51;5.17;;;2.57;;
5995;SDS011;3026;53.612;7.278;2022-08-19T02:48:20;3.30;;;2.37;;
5995;SDS011;3026;53.612;7.278;2022-08-19T02:50:49;2.87;;;2.57;;
5995;SDS011;3026;53.612;7.278;2022-08-19T02:53:20;3.30;;;2.57;;
5995;SDS011;3026;53.612;7.278;2022-08-19T02:55:48;2.40;;;2.20;;
5995;SDS011;3026;53.612;7.278;2022-08-19T02:58:16;2.80;;;2.60;;
5995;SDS011;3026;53.612;7.278;2022-08-19T03:00:44;2.47;;;2.17;;
5995;SDS011;3026;53.612;7.278;2022-08-19T03:03:13;3.73;;;2.20;;
5995;SDS011;3026;53.612;7.278;2022-08-19T03:05:42;4.73;;;2.57;;
5995;SDS011;3026;53.612;7.278;2022-08-19T03:08:10;3.03;;;2.53;;
5995;SDS011;3026;53.612;7.278;2022-08-19T03:10:41;5.20;;;2.70;;
5995;SDS011;3026;53.612;7.278;2022-08-19T03:13:11;3.73;;;2.90;;
5995;SDS011;3026;53.612;7.278;2022-08-19T03:15:40;3.77;;;2.40;;
5995;SDS011;3026;53.612;7.278;2022-08-19T03:18:08;5.17;;;2.50;;
5995;SDS011;3026;53.612;7.278;2022-08-19T03:20:39;4.80;;;2.57;;
5995;SDS011;3026;53.612;7.278;2022-08-19T03:23:08;5.27;;;2.50;;
5995;SDS011;3026;53.612;7.278;2022-08-19T03:25:36;2.67;;;2.47;;
5995;SDS011;3026;53.612;7.278;2022-08-19T03:28:05;2.53;;;2.33;;
5995;SDS011;3026;53.612;7.278;2022-08-19T03:30:33;2.70;;;2.40;;
5995;SDS011;3026;53.612;7.278;2022-08-19T03:33:00;5.00;;;2.50;;
5995;SDS011;3026;53.612;7.278;2022-08-19T03:35:27;2.60;;;2.40;;
5995;SDS011;3026;53.612;7.278;2022-08-19T03:37:55;4.53;;;2.30;;
5995;SDS011;3026;53.612;7.278;2022-08-19T03:40:22;3.30;;;3.00;;
5995;SDS011;3026;53.612;7.278;2022-08-19T03:42:49;5.10;;;3.07;;
5995;SDS011;3026;53.612;7.278;2022-08-19T03:45:16;4.60;;;3.40;;
5995;SDS011;3026;53.612;7.278;2022-08-19T03:47:43;4.67;;;3.30;;
5995;SDS011;3026;53.612;7.278;2022-08-19T03:50:11;3.93;;;3.53;;
5995;SDS011;3026;53.612;7.278;2022-08-19T03:52:38;4.13;;;3.50;;
5995;SDS011;3026;53.612;7.278;2022-08-19T03:55:07;3.37;;;3.07;;
5995;SDS011;3026;53.612;7.278;2022-08-19T03:57:34;4.87;;;3.27;;
5995;SDS011;3026;53.612;7.278;2022-08-19T04:00:03;6.25;;;4.07;;
5995;SDS011;3026;53.612;7.278;2022-08-19T04:02:31;4.30;;;3.70;;
5995;SDS011;3026;53.612;7.278;2022-08-19T04:04:59;4.63;;;4.23;;
5995;SDS011;3026;53.612;7.278;2022-08-19T04:07:26;4.03;;;3.40;;
5995;SDS011;3026;53.612;7.278;2022-08-19T04:09:52;4.43;;;3.57;;
5995;SDS011;3026;53.612;7.278;2022-08-19T04:12:21;5.53;;;3.73;;
5995;SDS011;3026;53.612;7.278;2022-08-19T04:14:48;4.83;;;3.87;;
5995;SDS011;3026;53.612;7.278;2022-08-19T04:17:15;5.23;;;4.73;;
5995;SDS011;3026;53.612;7.278;2022-08-19T04:19:42;6.07;;;4.40;;
5995;SDS011;3026;53.612;7.278;2022-08-19T04:22:09;6.53;;;4.83;;
5995;SDS011;3026;53.612;7.278;2022-08-19T04:24:37;7.37;;;4.93;;
5995;SDS011;3026;53.612;7.278;2022-08-19T04:27:04;4.50;;;4.10;;
5995;SDS011;3026;53.612;7.278;2022-08-19T04:29:33;5.00;;;4.50;;
5995;SDS011;3026;53.612;7.278;2022-08-19T04:32:00;8.47;;;4.90;;
5995;SDS011;3026;53.612;7.278;2022-08-19T04:34:28;5.50;;;4.80;;
5995;SDS011;3026;53.612;7.278;2022-08-19T04:36:56;5.20;;;4.70;;
5995;SDS011;3026;53.612;7.278;2022-08-19T04:39:24;6.80;;;5.03;;
5995;SDS011;3026;53.612;7.278;2022-08-19T04:42:14;7.40;;;4.70;;
5995;SDS011;3026;53.612;7.278;2022-08-19T04:45:01;5.83;;;5.23;;
5995;SDS011;3026;53.612;7.278;2022-08-19T04:47:29;6.30;;;5.13;;
5995;SDS011;3026;53.612;7.278;2022-08-19T04:49:56;6.57;;;5.43;;
5995;SDS011;3026;53.612;7.278;2022-08-19T04:52:23;5.47;;;4.73;;
5995;SDS011;3026;53.612;7.278;2022-08-19T04:54:50;6.47;;;5.07;;
5995;SDS011;3026;53.612;7.278;2022-08-19T04:57:17;6.23;;;4.97;;
5995;SDS011;3026;53.612;7.278;2022-08-19T04:59:44;5.47;;;4.60;;
5995;SDS011;3026;53.612;7.278;2022-08-19T05:02:12;6.77;;;5.10;;
5995;SDS011;3026;53.612;7.278;2022-08-19T05:04:39;6.97;;;5.13;;
5995;SDS011;3026;53.612;7.278;2022-08-19T05:07:06;7.20;;;5.67;;
5995;SDS011;3026;53.612;7.278;2022-08-19T05:09:35;6.70;;;5.17;;
5995;SDS011;3026;53.612;7.278;2022-08-19T05:12:02;6.37;;;5.77;;
5995;SDS011;3026;53.612;7.278;2022-08-19T05:14:29;10.57;;;6.53;;
5995;SDS011;3026;53.612;7.278;2022-08-19T05:16:56;6.17;;;5.57;;
5995;SDS011;3026;53.612;7.278;2022-08-19T05:19:24;6.37;;;5.60;;
5995;SDS011;3026;53.612;7.278;2022-08-19T05:22:08;8.43;;;5.80;;
5995;SDS011;3026;53.612;7.278;2022-08-19T05:24:52;7.17;;;5.80;;
5995;SDS011;3026;53.612;7.278;2022-08-19T05:27:20;6.50;;;5.60;;
5995;SDS011;3026;53.612;7.278;2022-08-19T05:29:46;7.43;;;6.20;;
5995;SDS011;3026;53.612;7.278;2022-08-19T05:32:13;8.80;;;5.40;;
5995;SDS011;3026;53.612;7.278;2022-08-19T05:34:42;9.13;;;6.07;;
5995;SDS011;3026;53.612;7.278;2022-08-19T05:37:08;9.77;;;5.63;;
5995;SDS011;3026;53.612;7.278;2022-08-19T05:39:36;7.60;;;6.47;;
5995;SDS011;3026;53.612;7.278;2022-08-19T05:42:04;8.07;;;6.20;;
5995;SDS011;3026;53.612;7.278;2022-08-19T05:44:34;15.93;;;6.53;;
5995;SDS011;3026;53.612;7.278;2022-08-19T05:47:04;11.80;;;6.50;;
5995;SDS011;3026;53.612;7.278;2022-08-19T05:49:33;10.70;;;7.20;;
5995;SDS011;3026;53.612;7.278;2022-08-19T05:52:04;7.93;;;5.77;;
5995;SDS011;3026;53.612;7.278;2022-08-19T05:54:32;8.23;;;5.73;;
5995;SDS011;3026;53.612;7.278;2022-08-19T05:57:00;8.73;;;6.10;;
5995;SDS011;3026;53.612;7.278;2022-08-19T05:59:27;10.30;;;6.13;;
5995;SDS011;3026;53.612;7.278;2022-08-19T06:01:54;10.67;;;6.30;;
5995;SDS011;3026;53.612;7.278;2022-08-19T06:04:22;8.47;;;6.70;;
5995;SDS011;3026;53.612;7.278;2022-08-19T06:06:51;9.00;;;6.70;;
5995;SDS011;3026;53.612;7.278;2022-08-19T06:09:20;8.20;;;5.87;;
5995;SDS011;3026;53.612;7.278;2022-08-19T06:11:50;9.27;;;6.20;;
5995;SDS011;3026;53.612;7.278;2022-08-19T06:14:20;7.07;;;5.90;;
5995;SDS011;3026;53.612;7.278;2022-08-19T06:16:48;8.53;;;6.00;;
5995;SDS011;3026;53.612;7.278;2022-08-19T06:19:17;6.63;;;5.70;;
5995;SDS011;3026;53.612;7.278;2022-08-19T06:21:47;5.63;;;5.13;;
5995;SDS011;3026;53.612;7.278;2022-08-19T06:24:16;8.27;;;5.43;;
5995;SDS011;3026;53.612;7.278;2022-08-19T06:26:47;5.67;;;4.87;;
5995;SDS011;3026;53.612;7.278;2022-08-19T06:29:16;9.93;;;5.30;;
5995;SDS011;3026;53.612;7.278;2022-08-19T06:31:44;6.67;;;5.33;;
5995;SDS011;3026;53.612;7.278;2022-08-19T06:34:14;5.40;;;4.30;;
5995;SDS011;3026;53.612;7.278;2022-08-19T06:36:43;6.63;;;4.20;;
5995;SDS011;3026;53.612;7.278;2022-08-19T06:39:12;4.20;;;3.80;;
5995;SDS011;3026;53.612;7.278;2022-08-19T06:41:43;7.87;;;4.17;;
5995;SDS011;3026;53.612;7.278;2022-08-19T06:44:13;6.13;;;3.83;;
5995;SDS011;3026;53.612;7.278;2022-08-19T06:46:40;7.87;;;4.30;;
5995;SDS011;3026;53.612;7.278;2022-08-19T06:49:08;6.23;;;3.63;;
5995;SDS011;3026;53.612;7.278;2022-08-19T06:51:36;5.20;;;4.20;;
5995;SDS011;3026;53.612;7.278;2022-08-19T06:54:04;5.47;;;3.77;;
5995;SDS011;3026;53.612;7.278;2022-08-19T06:56:32;3.67;;;3.17;;
5995;SDS011;3026;53.612;7.278;2022-08-19T06:59:00;6.50;;;3.70;;
5995;SDS011;3026;53.612;7.278;2022-08-19T07:01:29;5.17;;;3.30;;
5995;SDS011;3026;53.612;7.278;2022-08-19T07:03:56;4.47;;;2.97;;
5995;SDS011;3026;53.612;7.278;2022-08-19T07:06:22;3.00;;;2.43;;
5995;SDS011;3026;53.612;7.278;2022-08-19T07:08:49;4.33;;;3.40;;
5995;SDS011;3026;53.612;7.278;2022-08-19T07:11:17;4.07;;;3.20;;
5995;SDS011;3026;53.612;7.278;2022-08-19T07:13:45;4.53;;;3.23;;
5995;SDS011;3026;53.612;7.278;2022-08-19T07:16:16;3.33;;;3.00;;
5995;SDS011;3026;53.612;7.278;2022-08-19T07:18:46;4.03;;;2.73;;
5995;SDS011;3026;53.612;7.278;2022-08-19T07:21:15;7.53;;;2.67;;
5995;SDS011;3026;53.612;7.278;2022-08-19T07:23:43;3.83;;;2.80;;
5995;SDS011;3026;53.612;7.278;2022-08-19T07:26:12;2.80;;;2.60;;
5995;SDS011;3026;53.612;7.278;2022-08-19T07:28:41;5.43;;;2.63;;
5995;SDS011;3026;53.612;7.278;2022-08-19T07:31:10;4.37;;;2.57;;
5995;SDS011;3026;53.612;7.278;2022-08-19T07:33:38;4.30;;;2.47;;
5995;SDS011;3026;53.612;7.278;2022-08-19T07:36:08;4.17;;;2.30;;
5995;SDS011;3026;53.612;7.278;2022-08-19T07:38:38;4.97;;;2.50;;
5995;SDS011;3026;53.612;7.278;2022-08-19T07:41:06;3.43;;;2.43;;
5995;SDS011;3026;53.612;7.278;2022-08-19T07:43:35;3.93;;;2.63;;
5995;SDS011;3026;53.612;7.278;2022-08-19T07:46:02;2.83;;;2.63;;
5995;SDS011;3026;53.612;7.278;2022-08-19T07:48:29;3.47;;;3.10;;
5995;SDS011;3026;53.612;7.278;2022-08-19T07:50:57;4.33;;;3.10;;
5995;SDS011;3026;53.612;7.278;2022-08-19T07:53:29;3.30;;;2.47;;
5995;SDS011;3026;53.612;7.278;2022-08-19T07:55:58;3.37;;;2.63;;
5995;SDS011;3026;53.612;7.278;2022-08-19T07:58:29;4.07;;;2.67;;
5995;SDS011;3026;53.612;7.278;2022-08-19T08:00:58;4.70;;;2.73;;
5995;SDS011;3026;53.612;7.278;2022-08-19T08:03:27;4.37;;;2.87;;
5995;SDS011;3026;53.612;7.278;2022-08-19T08:06:08;5.53;;;2.57;;
5995;SDS011;3026;53.612;7.278;2022-08-19T08:08:54;3.00;;;2.70;;
5995;SDS011;3026;53.612;7.278;2022-08-19T08:11:47;3.37;;;2.67;;
5995;SDS011;3026;53.612;7.278;2022-08-19T08:14:17;4.53;;;3.37;;
5995;SDS011;3026;53.612;7.278;2022-08-19T08:16:46;4.63;;;3.00;;
5995;SDS011;3026;53.612;7.278;2022-08-19T08:19:15;4.10;;;3.00;;
5995;SDS011;3026;53.612;7.278;2022-08-19T08:21:43;4.37;;;3.17;;
5995;SDS011;3026;53.612;7.278;2022-08-19T08:24:12;4.87;;;3.17;;
5995;SDS011;3026;53.612;7.278;2022-08-19T08:26:38;4.20;;;3.10;;
5995;SDS011;3026;53.612;7.278;2022-08-19T08:29:06;4.63;;;3.10;;
5995;SDS011;3026;53.612;7.278;2022-08-19T08:31:35;3.67;;;2.83;;
5995;SDS011;3026;53.612;7.278;2022-08-19T08:34:02;5.57;;;3.67;;
5995;SDS011;3026;53.612;7.278;2022-08-19T08:36:29;3.60;;;3.30;;
5995;SDS011;3026;53.612;7.278;2022-08-19T08:38:58;10.00;;;3.53;;
5995;SDS011;3026;53.612;7.278;2022-08-19T08:41:28;3.33;;;3.03;;
5995;SDS011;3026;53.612;7.278;2022-08-19T08:44:00;4.33;;;3.70;;
5995;SDS011;3026;53.612;7.278;2022-08-19T08:46:32;4.33;;;3.37;;
5995;SDS011;3026;53.612;7.278;2022-08-19T08:49:11;4.40;;;3.90;;
5995;SDS011;3026;53.612;7.278;2022-08-19T08:51:51;7.63;;;4.00;;
5995;SDS011;3026;53.612;7.278;2022-08-19T08:54:30;6.33;;;3.30;;
5995;SDS011;3026;53.612;7.278;2022-08-19T08:57:01;5.70;;;3.07;;
5995;SDS011;3026;53.612;7.278;2022-08-19T08:59:31;4.63;;;3.07;;
5995;SDS011;3026;53.612;7.278;2022-08-19T09:02:03;6.17;;;4.50;;
5995;SDS011;3026;53.612;7.278;2022-08-19T09:04:30;5.33;;;3.67;;
5995;SDS011;3026;53.612;7.278;2022-08-19T09:07:00;4.57;;;4.03;;
5995;SDS011;3026;53.612;7.278;2022-08-19T09:09:40;5.00;;;3.37;;
5995;SDS011;3026;53.612;7.278;2022-08-19T09:12:22;3.63;;;3.33;;
5995;SDS011;3026;53.612;7.278;2022-08-19T09:15:02;4.83;;;3.97;;
5995;SDS011;3026;53.612;7.278;2022-08-19T09:17:33;4.00;;;3.43;;
5995;SDS011;3026;53.612;7.278;2022-08-19T09:20:02;4.07;;;3.67;;
5995;SDS011;3026;53.612;7.278;2022-08-19T09:22:31;3.37;;;3.07;;
5995;SDS011;3026;53.612;7.278;2022-08-19T09:24:59;4.50;;;3.10;;
5995;SDS011;3026;53.612;7.278;2022-08-19T09:27:27;4.00;;;3.70;;
5995;SDS011;3026;53.612;7.278;2022-08-19T09:29:55;8.00;;;3.93;;
5995;SDS011;3026;53.612;7.278;2022-08-19T09:32:22;4.93;;;3.47;;
5995;SDS011;3026;53.612;7.278;2022-08-19T09:34:51;4.80;;;3.97;;
5995;SDS011;3026;53.612;7.278;2022-08-19T09:37:19;4.90;;;4.40;;
5995;SDS011;3026;53.612;7.278;2022-08-19T09:39:46;5.57;;;4.00;;
5995;SDS011;3026;53.612;7.278;2022-08-19T09:42:13;7.03;;;4.73;;
5995;SDS011;3026;53.612;7.278;2022-08-19T09:44:42;5.10;;;4.30;;
5995;SDS011;3026;53.612;7.278;2022-08-19T09:47:09;4.70;;;3.60;;
5995;SDS011;3026;53.612;7.278;2022-08-19T09:49:38;6.00;;;4.40;;
5995;SDS011;3026;53.612;7.278;2022-08-19T09:52:05;4.32;;;3.72;;
5995;SDS011;3026;53.612;7.278;2022-08-19T09:54:34;4.78;;;3.65;;
5995;SDS011;3026;53.612;7.278;2022-08-19T09:57:01;3.30;;;3.00;;
5995;SDS011;3026;53.612;7.278;2022-08-19T09:59:28;4.60;;;3.10;;
5995;SDS011;3026;53.612;7.278;2022-08-19T10:01:57;2.75;;;2.53;;
5995;SDS011;3026;53.612;7.278;2022-08-19T10:04:24;4.20;;;3.10;;
5995;SDS011;3026;53.612;7.278;2022-08-19T10:07:11;4.63;;;3.42;;
5995;SDS011;3026;53.612;7.278;2022-08-19T10:09:38;4.47;;;4.13;;
5995;SDS011;3026;53.612;7.278;2022-08-19T10:12:06;3.42;;;3.13;;
5995;SDS011;3026;53.612;7.278;2022-08-19T10:14:34;5.38;;;3.42;;
5995;SDS011;3026;53.612;7.278;2022-08-19T10:17:02;4.22;;;2.85;;
5995;SDS011;3026;53.612;7.278;2022-08-19T10:19:29;5.03;;;3.20;;
5995;SDS011;3026;53.612;7.278;2022-08-19T10:22:02;3.85;;;3.53;;
5995;SDS011;3026;53.612;7.278;2022-08-19T10:24:30;2.92;;;2.67;;
5995;SDS011;3026;53.612;7.278;2022-08-19T10:26:57;3.03;;;2.33;;
5995;SDS011;3026;53.612;7.278;2022-08-19T10:29:24;3.72;;;3.10;;
5995;SDS011;3026;53.612;7.278;2022-08-19T10:31:53;3.33;;;2.90;;
5995;SDS011;3026;53.612;7.278;2022-08-19T10:34:22;4.97;;;3.30;;
5995;SDS011;3026;53.612;7.278;2022-08-19T10:36:49;4.60;;;4.00;;
5995;SDS011;3026;53.612;7.278;2022-08-19T10:39:16;3.10;;;2.80;;
5995;SDS011;3026;53.612;7.278;2022-08-19T10:41:43;3.47;;;2.92;;
5995;SDS011;3026;53.612;7.278;2022-08-19T10:44:11;3.08;;;2.88;;
5995;SDS011;3026;53.612;7.278;2022-08-19T10:46:41;3.47;;;2.65;;
5995;SDS011;3026;53.612;7.278;2022-08-19T10:49:12;3.88;;;3.50;;
5995;SDS011;3026;53.612;7.278;2022-08-19T10:51:41;3.88;;;3.10;;
5995;SDS011;3026;53.612;7.278;2022-08-19T10:54:26;3.47;;;3.17;;
5995;SDS011;3026;53.612;7.278;2022-08-19T10:57:07;5.13;;;3.20;;
5995;SDS011;3026;53.612;7.278;2022-08-19T10:59:34;3.90;;;2.92;;
5995;SDS011;3026;53.612;7.278;2022-08-19T11:02:02;4.22;;;2.28;;
5995;SDS011;3026;53.612;7.278;2022-08-19T11:04:30;3.20;;;2.90;;
5995;SDS011;3026;53.612;7.278;2022-08-19T11:06:59;2.72;;;2.38;;
5995;SDS011;3026;53.612;7.278;2022-08-19T11:09:27;2.40;;;2.20;;
5995;SDS011;3026;53.612;7.278;2022-08-19T11:11:54;3.50;;;2.35;;
5995;SDS011;3026;53.612;7.278;2022-08-19T11:14:21;3.30;;;1.88;;
5995;SDS011;3026;53.612;7.278;2022-08-19T11:16:49;2.40;;;2.20;;
5995;SDS011;3026;53.612;7.278;2022-08-19T11:19:17;2.85;;;2.35;;
5995;SDS011;3026;53.612;7.278;2022-08-19T11:21:46;4.68;;;2.70;;
5995;SDS011;3026;53.612;7.278;2022-08-19T11:24:16;3.28;;;2.63;;
5995;SDS011;3026;53.612;7.278;2022-08-19T11:26:45;3.78;;;2.67;;
5995;SDS011;3026;53.612;7.278;2022-08-19T11:29:14;2.80;;;2.53;;
5995;SDS011;3026;53.612;7.278;2022-08-19T11:31:45;6.57;;;2.85;;
5995;SDS011;3026;53.612;7.278;2022-08-19T11:34:15;2.15;;;1.98;;
5995;SDS011;3026;53.612;7.278;2022-08-19T11:36:44;3.75;;;2.25;;
5995;SDS011;3026;53.612;7.278;2022-08-19T11:39:13;3.10;;;2.45;;
5995;SDS011;3026;53.612;7.278;2022-08-19T11:41:43;3.85;;;2.50;;
5995;SDS011;3026;53.612;7.278;2022-08-19T11:44:10;2.25;;;2.05;;
5995;SDS011;3026;53.612;7.278;2022-08-19T11:46:40;2.88;;;2.17;;
5995;SDS011;3026;53.612;7.278;2022-08-19T11:49:11;4.07;;;2.20;;
5995;SDS011;3026;53.612;7.278;2022-08-19T11:51:38;2.33;;;2.15;;
5995;SDS011;3026;53.612;7.278;2022-08-19T11:54:07;5.22;;;2.53;;
5995;SDS011;3026;53.612;7.278;2022-08-19T11:56:36;6.45;;;2.72;;
5995;SDS011;3026;53.612;7.278;2022-08-19T11:59:04;2.45;;;2.25;;
5995;SDS011;3026;53.612;7.278;2022-08-19T12:01:33;2.22;;;2.13;;
5995;SDS011;3026;53.612;7.278;2022-08-19T12:04:00;3.63;;;2.70;;
5995;SDS011;3026;53.612;7.278;2022-08-19T12:06:30;3.55;;;3.25;;
5995;SDS011;3026;53.612;7.278;2022-08-19T12:09:00;3.40;;;2.83;;
5995;SDS011;3026;53.612;7.278;2022-08-19T12:11:31;5.05;;;3.72;;
5995;SDS011;3026;53.612;7.278;2022-08-19T12:14:00;4.88;;;3.38;;
5995;SDS011;3026;53.612;7.278;2022-08-19T12:16:27;4.75;;;3.10;;
5995;SDS011;3026;53.612;7.278;2022-08-19T12:18:56;3.22;;;2.80;;
5995;SDS011;3026;53.612;7.278;2022-08-19T12:21:24;3.33;;;3.10;;
5995;SDS011;3026;53.612;7.278;2022-08-19T12:23:53;4.57;;;2.85;;
5995;SDS011;3026;53.612;7.278;2022-08-19T12:26:22;4.47;;;3.22;;
5995;SDS011;3026;53.612;7.278;2022-08-19T12:28:49;3.28;;;2.97;;
5995;SDS011;3026;53.612;7.278;2022-08-19T12:31:18;3.70;;;3.00;;
5995;SDS011;3026;53.612;7.278;2022-08-19T12:33:46;2.67;;;2.35;;
5995;SDS011;3026;53.612;7.278;2022-08-19T12:36:14;2.97;;;2.60;;
5995;SDS011;3026;53.612;7.278;2022-08-19T12:38:43;3.33;;;2.50;;
5995;SDS011;3026;53.612;7.278;2022-08-19T12:41:11;4.93;;;2.92;;
5995;SDS011;3026;53.612;7.278;2022-08-19T12:43:39;3.90;;;2.67;;
5995;SDS011;3026;53.612;7.278;2022-08-19T12:46:07;3.83;;;2.60;;
5995;SDS011;3026;53.612;7.278;2022-08-19T12:48:36;4.53;;;2.72;;
5995;SDS011;3026;53.612;7.278;2022-08-19T12:51:05;3.40;;;3.10;;
5995;SDS011;3026;53.612;7.278;2022-08-19T12:53:34;3.47;;;2.80;;
5995;SDS011;3026;53.612;7.278;2022-08-19T12:56:02;4.00;;;3.00;;
5995;SDS011;3026;53.612;7.278;2022-08-19T12:58:30;2.97;;;2.78;;
5995;SDS011;3026;53.612;7.278;2022-08-19T13:00:59;3.58;;;3.28;;
5995;SDS011;3026;53.612;7.278;2022-08-19T13:03:31;3.10;;;2.90;;
5995;SDS011;3026;53.612;7.278;2022-08-19T13:06:00;3.70;;;2.75;;
5995;SDS011;3026;53.612;7.278;2022-08-19T13:08:26;3.97;;;2.80;;
5995;SDS011;3026;53.612;7.278;2022-08-19T13:10:53;4.00;;;2.78;;
5995;SDS011;3026;53.612;7.278;2022-08-19T13:13:20;4.00;;;3.08;;
5995;SDS011;3026;53.612;7.278;2022-08-19T13:15:47;5.15;;;3.17;;
5995;SDS011;3026;53.612;7.278;2022-08-19T13:18:14;4.57;;;3.25;;
5995;SDS011;3026;53.612;7.278;2022-08-19T13:20:41;3.35;;;2.95;;
5995;SDS011;3026;53.612;7.278;2022-08-19T13:23:10;3.53;;;3.03;;
5995;SDS011;3026;53.612;7.278;2022-08-19T13:25:37;3.63;;;3.30;;
5995;SDS011;3026;53.612;7.278;2022-08-19T13:28:04;4.18;;;3.70;;
5995;SDS011;3026;53.612;7.278;2022-08-19T13:30:32;3.97;;;3.30;;
5995;SDS011;3026;53.612;7.278;2022-08-19T13:33:17;7.13;;;3.15;;
5995;SDS011;3026;53.612;7.278;2022-08-19T13:35:46;4.07;;;3.28;;
5995;SDS011;3026;53.612;7.278;2022-08-19T13:38:16;5.55;;;4.05;;
5995;SDS011;3026;53.612;7.278;2022-08-19T13:40:45;3.58;;;3.28;;
5995;SDS011;3026;53.612;7.278;2022-08-19T13:43:15;4.03;;;3.40;;
5995;SDS011;3026;53.612;7.278;2022-08-19T13:45:42;4.45;;;2.88;;
5995;SDS011;3026;53.612;7.278;2022-08-19T13:48:10;4.50;;;3.25;;
5995;SDS011;3026;53.612;7.278;2022-08-19T13:50:38;3.60;;;3.17;;
5995;SDS011;3026;53.612;7.278;2022-08-19T13:53:06;4.88;;;4.00;;
5995;SDS011;3026;53.612;7.278;2022-08-19T13:55:36;4.38;;;3.13;;
5995;SDS011;3026;53.612;7.278;2022-08-19T13:58:03;6.28;;;4.15;;
5995;SDS011;3026;53.612;7.278;2022-08-19T14:00:31;3.83;;;3.42;;
5995;SDS011;3026;53.612;7.278;2022-08-19T14:03:00;3.92;;;3.15;;
5995;SDS011;3026;53.612;7.278;2022-08-19T14:05:28;4.45;;;4.05;;
5995;SDS011;3026;53.612;7.278;2022-08-19T14:07:56;4.20;;;3.58;;
5995;SDS011;3026;53.612;7.278;2022-08-19T14:10:24;5.45;;;3.47;;
5995;SDS011;3026;53.612;7.278;2022-08-19T14:12:54;4.40;;;3.90;;
5995;SDS011;3026;53.612;7.278;2022-08-19T14:15:23;4.80;;;3.92;;
5995;SDS011;3026;53.612;7.278;2022-08-19T14:17:51;5.00;;;3.80;;
5995;SDS011;3026;53.612;7.278;2022-08-19T14:20:18;4.20;;;3.88;;
5995;SDS011;3026;53.612;7.278;2022-08-19T14:22:46;5.25;;;4.28;;
5995;SDS011;3026;53.612;7.278;2022-08-19T14:25:17;4.38;;;3.80;;
5995;SDS011;3026;53.612;7.278;2022-08-19T14:27:45;4.65;;;4.00;;
5995;SDS011;3026;53.612;7.278;2022-08-19T14:30:15;7.07;;;6.32;;
5995;SDS011;3026;53.612;7.278;2022-08-19T14:32:44;5.75;;;4.95;;
5995;SDS011;3026;53.612;7.278;2022-08-19T14:35:12;7.15;;;5.25;;
5995;SDS011;3026;53.612;7.278;2022-08-19T14:37:40;7.15;;;6.10;;
5995;SDS011;3026;53.612;7.278;2022-08-19T14:40:09;6.07;;;5.47;;
5995;SDS011;3026;53.612;7.278;2022-08-19T14:42:36;6.95;;;6.25;;
5995;SDS011;3026;53.612;7.278;2022-08-19T14:45:04;7.60;;;5.40;;
5995;SDS011;3026;53.612;7.278;2022-08-19T14:47:33;6.47;;;5.10;;
5995;SDS011;3026;53.612;7.278;2022-08-19T14:50:00;7.80;;;7.00;;
5995;SDS011;3026;53.612;7.278;2022-08-19T14:52:27;7.00;;;6.30;;
5995;SDS011;3026;53.612;7.278;2022-08-19T14:54:54;8.43;;;6.47;;
5995;SDS011;3026;53.612;7.278;2022-08-19T14:57:21;8.73;;;6.95;;
5995;SDS011;3026;53.612;7.278;2022-08-19T14:59:48;6.80;;;5.95;;
5995;SDS011;3026;53.612;7.278;2022-08-19T15:02:15;6.10;;;5.55;;
5995;SDS011;3026;53.612;7.278;2022-08-19T15:04:43;6.75;;;5.20;;
5995;SDS011;3026;53.612;7.278;2022-08-19T15:07:10;7.05;;;6.35;;
5995;SDS011;3026;53.612;7.278;2022-08-19T15:09:37;5.82;;;5.22;;
5995;SDS011;3026;53.612;7.278;2022-08-19T15:12:04;9.75;;;5.35;;
5995;SDS011;3026;53.612;7.278;2022-08-19T15:14:31;4.90;;;4.03;;
5995;SDS011;3026;53.612;7.278;2022-08-19T15:17:00;8.85;;;5.93;;
5995;SDS011;3026;53.612;7.278;2022-08-19T15:19:29;6.38;;;4.55;;
5995;SDS011;3026;53.612;7.278;2022-08-19T15:21:57;7.18;;;5.18;;
5995;SDS011;3026;53.612;7.278;2022-08-19T15:24:24;5.95;;;4.47;;
5995;SDS011;3026;53.612;7.278;2022-08-19T15:26:51;6.53;;;5.82;;